Portada
METAR-TAF:

METAR-TAF

Aeroports :

Ponta Delgada, Açores, Portugal

latitud: 37-44N, longitud: 025-42W, altitud: 71 m

Observació

L'informe es va fer fa 40 minuts, a les 08:30 UTC
Vent 7 kt del Est/Nord-Est
Temperatura 13°C
Humitat 72%
Pressió 1035 hPa
Visibilitat 10 km o més
Escasses núvols a una alçada de 2500 ft

METAR: LPPD 270830Z 06007KT 9999 FEW025 13/08 Q1035

Hora: 08:10 (09:10 UTC)

Pronòstic

L'informe es va fer fa 4 hores i 10 minuts, a les 05:00 UTC
Pronòstic vàlid del 27 a les 06 UTC al 28 a les 06 UTC
Vent 10 kt del Nord-Est
Visibilitat 10 km o més
Núvols disperses a una alçada de 2500 ft
Temporalment
l' 27 a les 06 UTC al 28 a les 06 UTC
Cel ennuvolat a una alçada de 3500 ft
Evolucionant progressivament
l' 27 a les 09 UTC al 27 a les 12 UTC
Vent 5 kt amb direcció variable

TAF: LPPD 270500Z 2706/2806 05010KT 9999 SCT025 TEMPO 2706/2806 BKN035 BECMG 2709/2712 VRB05KT

Observacions i pronòstics meteorològics de més de 4000 aeroports (METAR i TAF).

Les estacions disponibles són els punts grocs i vermells al mapa.

Posi el ratolí al punt desitjat per veure el nom de l'estació.

Feu clic per veure les observacions i els pronòstics meteorològics.

Per canviar el mapa: feu clic els botons verds amb una creu de color negre per apropar; al botó verd amb un guió per allunyar la imatge; o en les fletxes verdes per a mapes adjacents.


METAR-TAF: